Time,TemperatureF,DewpointF,PressureIn,WindDirection,WindDirectionDegrees,WindSpeedMPH,WindSpeedGustMPH,Humidity,HourlyPrecipIn,Conditions,Clouds,dailyrainin,SoftwareType,DateUTC
2013-03-04 00:13:00,17.2,17.0,29.81,West,270,11.9,-999.0,99,-99.99,,,0.00,Acu-Link.com,2013-03-04 05:13:00,
2013-03-04 00:28:00,17.2,17.0,29.81,WSW,247,9.9,-999.0,99,-99.99,,,0.00,Acu-Link.com,2013-03-04 05:28:00,
2013-03-04 00:43:00,17.1,16.6,29.81,WSW,247,8.9,-999.0,98,-99.99,,,0.00,Acu-Link.com,2013-03-04 05:43:00,
2013-03-04 00:58:00,16.9,16.2,29.82,West,270,6.8,-999.0,97,-99.99,,,0.00,Acu-Link.com,2013-03-04 05:58:00,
2013-03-04 01:14:00,16.9,16.0,29.82,West,270,7.8,-999.0,96,-99.99,,,0.00,Acu-Link.com,2013-03-04 06:14:00,
2013-03-04 01:29:00,16.9,16.0,29.82,West,270,6.8,-999.0,96,-99.99,,,0.00,Acu-Link.com,2013-03-04 06:29:00,
2013-03-04 01:44:00,16.7,16.2,29.82,WSW,247,5.8,-999.0,98,-99.99,,,0.00,Acu-Link.com,2013-03-04 06:44:00,
2013-03-04 01:59:00,16.7,15.5,29.82,West,270,6.8,-999.0,95,-99.99,,,0.00,Acu-Link.com,2013-03-04 06:59:00,
2013-03-04 02:15:00,16.7,14.8,29.82,WSW,247,7.8,-999.0,92,-99.99,,,0.00,Acu-Link.com,2013-03-04 07:15:00,
2013-03-04 02:30:00,16.7,15.0,29.82,West,270,8.3,-999.0,93,-99.99,,,0.00,Acu-Link.com,2013-03-04 07:30:00,
2013-03-04 02:45:00,16.5,15.3,29.82,West,270,7.8,-999.0,95,-99.99,,,0.00,Acu-Link.com,2013-03-04 07:45:00,
2013-03-04 03:00:00,16.5,15.8,29.83,West,270,7.3,-999.0,97,-99.99,,,0.00,Acu-Link.com,2013-03-04 08:00:00,
2013-03-04 03:15:00,16.5,15.6,29.81,WNW,292,6.8,-999.0,96,-99.99,,,0.00,Acu-Link.com,2013-03-04 08:15:00,
2013-03-04 03:31:00,16.5,15.8,29.82,West,270,8.9,-999.0,97,-99.99,,,0.00,Acu-Link.com,2013-03-04 08:31:00,
2013-03-04 03:46:00,16.5,15.3,29.83,NNW,337,10.4,-999.0,95,-99.99,,,0.00,Acu-Link.com,2013-03-04 08:46:00,
2013-03-04 04:01:00,16.3,14.6,29.82,West,270,6.8,-999.0,93,-99.99,,,0.00,Acu-Link.com,2013-03-04 09:01:00,
2013-03-04 04:20:00,16.3,14.6,29.82,West,270,18.1,-999.0,93,-99.99,,,0.00,Acu-Link.com,2013-03-04 09:20:00,
2013-03-04 04:35:00,16.2,13.5,29.84,West,270,10.4,-999.0,89,-99.99,,,0.00,Acu-Link.com,2013-03-04 09:35:00,
2013-03-04 04:51:00,16.2,13.8,29.84,SW,225,9.4,-999.0,90,-99.99,,,0.00,Acu-Link.com,2013-03-04 09:51:00,
2013-03-04 05:06:00,16.0,14.1,29.85,WSW,247,5.8,-999.0,92,-99.99,,,0.00,Acu-Link.com,2013-03-04 10:06:00,
2013-03-04 05:21:00,16.0,13.8,29.84,WSW,247,8.9,-999.0,91,-99.99,,,0.00,Acu-Link.com,2013-03-04 10:21:00,
2013-03-04 05:36:00,15.8,14.1,29.85,WNW,292,9.9,-999.0,93,-99.99,,,0.00,Acu-Link.com,2013-03-04 10:36:00,
2013-03-04 05:51:00,15.8,14.1,29.86,WSW,247,12.5,-999.0,93,-99.99,,,0.00,Acu-Link.com,2013-03-04 10:51:00,
2013-03-04 06:07:00,15.6,14.2,29.86,WSW,247,12.5,-999.0,94,-99.99,,,0.00,Acu-Link.com,2013-03-04 11:07:00,
2013-03-04 06:22:00,15.6,13.9,29.86,West,270,7.8,-999.0,93,-99.99,,,0.00,Acu-Link.com,2013-03-04 11:22:00,
2013-03-04 06:37:00,15.6,13.7,29.87,West,270,7.3,-999.0,92,-99.99,,,0.00,Acu-Link.com,2013-03-04 11:37:00,
2013-03-04 06:53:00,15.6,14.2,29.87,West,270,7.8,-999.0,94,-99.99,,,0.00,Acu-Link.com,2013-03-04 11:53:00,
2013-03-04 07:08:00,15.6,14.7,29.88,NW,315,7.8,-999.0,96,-99.99,,,0.00,Acu-Link.com,2013-03-04 12:08:00,
2013-03-04 07:23:00,15.8,14.4,29.88,WNW,292,8.3,-999.0,94,-99.99,,,0.00,Acu-Link.com,2013-03-04 12:23:00,
2013-03-04 07:39:00,16.0,14.6,29.88,West,270,6.8,-999.0,94,-99.99,,,0.00,Acu-Link.com,2013-03-04 12:39:00,
2013-03-04 07:54:00,16.2,14.5,29.89,West,270,5.3,-999.0,93,-99.99,,,0.00,Acu-Link.com,2013-03-04 12:54:00,
2013-03-04 08:09:00,16.5,14.1,29.91,West,270,6.3,-999.0,90,-99.99,,,0.00,Acu-Link.com,2013-03-04 13:09:00,
2013-03-04 08:25:00,17.1,13.9,29.91,NNW,337,6.3,-999.0,87,-99.99,,,0.00,Acu-Link.com,2013-03-04 13:25:00,
2013-03-04 08:40:00,17.2,13.5,29.92,WNW,292,17.1,-999.0,85,-99.99,,,0.00,Acu-Link.com,2013-03-04 13:40:00,
2013-03-04 08:55:00,17.8,13.8,29.91,West,270,7.3,-999.0,84,-99.99,,,0.00,Acu-Link.com,2013-03-04 13:55:00,
2013-03-04 09:10:00,18.3,13.7,29.91,SSW,202,8.9,-999.0,82,-99.99,,,0.00,Acu-Link.com,2013-03-04 14:10:00,
2013-03-04 09:25:00,18.3,13.7,29.91,NNW,337,10.4,-999.0,82,-99.99,,,0.00,Acu-Link.com,2013-03-04 14:25:00,
2013-03-04 09:41:00,19.2,14.1,29.93,NW,315,10.9,-999.0,80,-99.99,,,0.00,Acu-Link.com,2013-03-04 14:41:00,
2013-03-04 09:56:00,20.3,14.0,29.93,West,270,8.3,-999.0,76,-99.99,,,0.00,Acu-Link.com,2013-03-04 14:56:00,
2013-03-04 10:11:00,20.5,14.2,29.92,West,270,7.8,-999.0,76,-99.99,,,0.00,Acu-Link.com,2013-03-04 15:11:00,
2013-03-04 10:26:00,21.2,14.8,29.93,SSW,202,9.9,-999.0,76,-99.99,,,0.00,Acu-Link.com,2013-03-04 15:26:00,
2013-03-04 10:42:00,21.2,15.4,29.92,NNE,22,11.9,-999.0,78,-99.99,,,0.00,Acu-Link.com,2013-03-04 15:42:00,
2013-03-04 10:57:00,21.0,14.9,29.92,WSW,247,10.4,-999.0,77,-99.99,,,0.00,Acu-Link.com,2013-03-04 15:57:00,
2013-03-04 11:12:00,21.4,15.3,29.92,NW,315,11.9,-999.0,77,-99.99,,,0.00,Acu-Link.com,2013-03-04 16:12:00,
2013-03-04 11:27:00,21.6,15.8,29.92,West,270,12.5,-999.0,78,-99.99,,,0.00,Acu-Link.com,2013-03-04 16:27:00,
2013-03-04 11:43:00,22.1,16.0,29.91,West,270,8.3,-999.0,77,-99.99,,,0.00,Acu-Link.com,2013-03-04 16:43:00,
2013-03-04 11:58:00,22.8,16.1,29.91,West,270,9.9,-999.0,75,-99.99,,,0.00,Acu-Link.com,2013-03-04 16:58:00,
2013-03-04 12:13:00,25.2,16.8,29.90,West,270,8.9,-999.0,70,-99.99,,,0.00,Acu-Link.com,2013-03-04 17:13:00,
2013-03-04 12:28:00,26.1,17.0,29.90,WNW,292,11.4,-999.0,68,-99.99,,,0.00,Acu-Link.com,2013-03-04 17:28:00,
2013-03-04 12:43:00,27.9,17.3,29.90,WNW,292,11.9,-999.0,64,-99.99,,,0.00,Acu-Link.com,2013-03-04 17:43:00,
2013-03-04 12:59:00,27.1,16.6,29.89,West,270,9.4,-999.0,64,-99.99,,,0.00,Acu-Link.com,2013-03-04 17:59:00,
2013-03-04 13:14:00,28.0,17.1,29.89,West,270,6.8,-999.0,63,-99.99,,,0.00,Acu-Link.com,2013-03-04 18:14:00,
2013-03-04 13:29:00,28.4,17.4,29.89,West,270,7.8,-999.0,63,-99.99,,,0.00,Acu-Link.com,2013-03-04 18:29:00,
2013-03-04 13:45:00,28.8,17.1,29.88,West,270,9.4,-999.0,61,-99.99,,,0.00,Acu-Link.com,2013-03-04 18:45:00,
2013-03-04 14:00:00,29.5,17.7,29.87,South,180,7.8,-999.0,61,-99.99,,,0.00,Acu-Link.com,2013-03-04 19:00:00,
2013-03-04 14:15:00,29.7,17.9,29.87,WNW,292,7.8,-999.0,61,-99.99,,,0.00,Acu-Link.com,2013-03-04 19:15:00,
2013-03-04 14:30:00,29.7,17.9,29.88,West,270,8.9,-999.0,61,-99.99,,,0.00,Acu-Link.com,2013-03-04 19:30:00,
2013-03-04 14:45:00,29.8,17.6,29.87,West,270,7.3,-999.0,60,-99.99,,,0.00,Acu-Link.com,2013-03-04 19:45:00,
2013-03-04 15:01:00,29.8,17.6,29.88,WNW,292,6.3,-999.0,60,-99.99,,,0.00,Acu-Link.com,2013-03-04 20:01:00,
2013-03-04 15:16:00,30.6,18.0,29.88,NW,315,5.8,-999.0,59,-99.99,,,0.00,Acu-Link.com,2013-03-04 20:16:00,
2013-03-04 15:31:00,30.2,18.4,29.87,WSW,247,4.7,-999.0,61,-99.99,,,0.00,Acu-Link.com,2013-03-04 20:31:00,
2013-03-04 15:47:00,30.9,18.3,29.88,West,270,8.9,-999.0,59,-99.99,,,0.00,Acu-Link.com,2013-03-04 20:47:00,
2013-03-04 16:02:00,30.7,18.1,29.88,West,270,7.8,-999.0,59,-99.99,,,0.00,Acu-Link.com,2013-03-04 21:02:00,
2013-03-04 16:17:00,30.9,18.7,29.88,West,270,4.7,-999.0,60,-99.99,,,0.00,Acu-Link.com,2013-03-04 21:17:00,
2013-03-04 16:33:00,31.3,19.0,29.88,West,270,7.3,-999.0,60,-99.99,,,0.00,Acu-Link.com,2013-03-04 21:33:00,
2013-03-04 16:48:00,30.9,19.1,29.88,NW,315,6.8,-999.0,61,-99.99,,,0.00,Acu-Link.com,2013-03-04 21:48:00,
2013-03-04 17:03:00,30.4,18.6,29.89,WNW,292,5.8,-999.0,61,-99.99,,,0.00,Acu-Link.com,2013-03-04 22:03:00,
2013-03-04 17:18:00,30.2,19.1,29.89,WSW,247,11.4,-999.0,63,-99.99,,,0.00,Acu-Link.com,2013-03-04 22:18:00,
2013-03-04 17:33:00,30.2,18.4,29.89,WNW,292,5.8,-999.0,61,-99.99,,,0.00,Acu-Link.com,2013-03-04 22:33:00,
2013-03-04 17:49:00,29.7,18.3,29.89,WSW,247,4.2,-999.0,62,-99.99,,,0.00,Acu-Link.com,2013-03-04 22:49:00,
2013-03-04 18:04:00,28.8,18.2,29.90,West,270,5.3,-999.0,64,-99.99,,,0.00,Acu-Link.com,2013-03-04 23:04:00,
2013-03-04 18:19:00,27.7,17.8,29.90,NW,315,7.3,-999.0,66,-99.99,,,0.00,Acu-Link.com,2013-03-04 23:19:00,
2013-03-04 18:34:00,27.5,17.7,29.91,West,270,6.3,-999.0,66,-99.99,,,0.00,Acu-Link.com,2013-03-04 23:34:00,
2013-03-04 18:50:00,27.1,17.6,29.90,WNW,292,3.7,-999.0,67,-99.99,,,0.00,Acu-Link.com,2013-03-04 23:50:00,
2013-03-04 19:05:00,26.8,17.7,29.90,WSW,247,4.2,-999.0,68,-99.99,,,0.00,Acu-Link.com,2013-03-05 00:05:00,
2013-03-04 19:20:00,26.6,17.8,29.91,WNW,292,5.3,-999.0,69,-99.99,,,0.00,Acu-Link.com,2013-03-05 00:20:00,
2013-03-04 19:35:00,26.4,17.6,29.90,West,270,4.2,-999.0,69,-99.99,,,0.00,Acu-Link.com,2013-03-05 00:35:00,
2013-03-04 19:50:00,26.1,17.7,29.91,West,270,5.3,-999.0,70,-99.99,,,0.00,Acu-Link.com,2013-03-05 00:50:00,
2013-03-04 20:06:00,25.7,17.6,29.91,West,270,5.8,-999.0,71,-99.99,,,0.00,Acu-Link.com,2013-03-05 01:06:00,
2013-03-04 20:21:00,25.7,17.6,29.93,West,270,6.8,-999.0,71,-99.99,,,0.00,Acu-Link.com,2013-03-05 01:21:00,
2013-03-04 20:36:00,25.5,17.4,29.93,West,270,4.7,-999.0,71,-99.99,,,0.00,Acu-Link.com,2013-03-05 01:36:00,
2013-03-04 20:51:00,25.5,17.4,29.92,WNW,292,5.8,-999.0,71,-99.99,,,0.00,Acu-Link.com,2013-03-05 01:51:00,
2013-03-04 21:06:00,25.3,17.6,29.93,West,270,2.7,-999.0,72,-99.99,,,0.00,Acu-Link.com,2013-03-05 02:06:00,
2013-03-04 21:22:00,25.0,17.3,29.92,West,270,2.7,-999.0,72,-99.99,,,0.00,Acu-Link.com,2013-03-05 02:22:00,
2013-03-04 21:37:00,24.8,17.4,29.93,SW,225,3.2,-999.0,73,-99.99,,,0.00,Acu-Link.com,2013-03-05 02:37:00,
2013-03-04 21:54:00,24.6,17.2,29.92,West,270,2.7,-999.0,73,-99.99,,,0.00,Acu-Link.com,2013-03-05 02:54:00,
2013-03-04 22:09:00,24.1,17.0,29.93,West,270,3.7,-999.0,74,-99.99,,,0.00,Acu-Link.com,2013-03-05 03:09:00,
2013-03-04 22:25:00,23.4,16.7,29.93,WSW,247,3.2,-999.0,75,-99.99,,,0.00,Acu-Link.com,2013-03-05 03:25:00,
2013-03-04 22:40:00,23.7,17.0,29.93,West,270,4.2,-999.0,75,-99.99,,,0.00,Acu-Link.com,2013-03-05 03:40:00,
2013-03-04 22:55:00,24.1,16.7,29.92,SW,225,4.2,-999.0,73,-99.99,,,0.00,Acu-Link.com,2013-03-05 03:55:00,
2013-03-04 23:10:00,23.9,16.5,29.92,West,270,3.2,-999.0,73,-99.99,,,0.00,Acu-Link.com,2013-03-05 04:10:00,
2013-03-04 23:25:00,23.4,16.7,29.92,SSW,202,2.7,-999.0,75,-99.99,,,0.00,Acu-Link.com,2013-03-05 04:25:00,
2013-03-04 23:41:00,23.0,16.3,29.92,West,270,3.7,-999.0,75,-99.99,,,0.00,Acu-Link.com,2013-03-05 04:41:00,
2013-03-04 23:56:00,22.8,16.1,29.92,West,270,3.7,-999.0,75,-99.99,,,0.00,Acu-Link.com,2013-03-05 04:56:00,